Wylie's Hourly Summary for Saturday, March 18, 2017
Hour Temp
(f)
RH
(%)
Solar Rad.
(MJ/m2)
Rainfall
(in)
Wind
(mph)
3/18/2017 12:00 AM 70 67 0 0 2.48
3/18/2017 1:00 AM 69 68 0 0 6.83
3/18/2017 2:00 AM 68 70 0 0 7.44
3/18/2017 3:00 AM 67 74 0 0 6.54
3/18/2017 4:00 AM 65 79 0 0 4.56
3/18/2017 5:00 AM 64 83 0 0 3.51
3/18/2017 6:00 AM 63 87 0 0 3.48
3/18/2017 7:00 AM 63 94 0 0 3.66
3/18/2017 8:00 AM 62 99 0.01 0 4.16
3/18/2017 9:00 AM 63 99 0.14 0 4.14
3/18/2017 10:00 AM 64 90 0.34 0 3.79
3/18/2017 11:00 AM 66 83 0.62 0 2.87
3/18/2017 12:00 PM 69 73 1.24 0 2.11
3/18/2017 1:00 PM 70 72 1.72 0 3.44
3/18/2017 2:00 PM 72 67 2.41 0 3.72
3/18/2017 3:00 PM 74 62 2.81 0 4.17
3/18/2017 4:00 PM 76 57 2.28 0 4.95
3/18/2017 5:00 PM 78 56 1.99 0 6.56
3/18/2017 6:00 PM 78 57 1.3 0 7
3/18/2017 7:00 PM 77 58 0.57 0 6.6
3/18/2017 8:00 PM 75 60 0.05 0 6.12
3/18/2017 9:00 PM 72 65 0 0 3.92
3/18/2017 10:00 PM 70 71 0 0 2.94
3/18/2017 11:00 PM 68 75 0 0 2.28
Data Summary 69 73 15.48 0.00 4.47